createdAt,value
2022-09-08T00:02:41.344Z,1.40
2022-09-08T00:07:48.430Z,1.48
2022-09-08T00:12:51.853Z,1.63
2022-09-08T00:17:55.225Z,1.48
2022-09-08T00:23:00.752Z,1.70
2022-09-08T00:28:04.510Z,1.83
2022-09-08T00:33:09.603Z,2.22
2022-09-08T00:38:14.671Z,2.25
2022-09-08T00:43:37.185Z,2.25
2022-09-08T00:48:47.544Z,2.65
2022-09-08T00:53:53.117Z,2.55
2022-09-08T00:58:57.239Z,2.88
2022-09-08T01:04:01.788Z,2.80
2022-09-08T01:09:31.606Z,2.95
2022-09-08T01:14:45.786Z,3.85
2022-09-08T01:19:50.665Z,4.23
2022-09-08T01:30:05.463Z,5.47
2022-09-08T01:35:10.391Z,5.95
2022-09-08T01:45:19.093Z,5.57
2022-09-08T01:50:24.191Z,5.20
2022-09-08T01:55:27.685Z,5.30
2022-09-08T02:00:32.481Z,5.43
2022-09-08T02:10:43.876Z,5.65
2022-09-08T02:15:49.079Z,5.18
2022-09-08T02:20:54.964Z,4.78
2022-09-08T02:25:58.568Z,5.43
2022-09-08T02:31:04.499Z,5.13
2022-09-08T02:36:08.913Z,5.07
2022-09-08T02:41:13.649Z,5.28
2022-09-08T02:46:18.895Z,4.68
2022-09-08T02:51:22.561Z,5.15
2022-09-08T02:56:30.063Z,5.72
2022-09-08T03:01:35.551Z,4.90
2022-09-08T03:06:39.668Z,4.80
2022-09-08T03:11:43.117Z,4.90
2022-09-08T03:16:48.114Z,4.93
2022-09-08T03:21:52.351Z,4.65
2022-09-08T03:26:55.908Z,4.57
2022-09-08T03:32:00.926Z,4.65
2022-09-08T03:37:04.392Z,4.30
2022-09-08T03:42:07.955Z,4.60
2022-09-08T03:47:12.704Z,4.00
2022-09-08T03:52:16.056Z,4.50
2022-09-08T03:57:23.224Z,3.90
2022-09-08T04:02:30.015Z,3.97
2022-09-08T04:07:35.641Z,4.47
2022-09-08T04:12:39.591Z,3.75
2022-09-08T04:17:44.873Z,4.27
2022-09-08T04:22:48.521Z,3.40
2022-09-08T04:27:52.146Z,3.70
2022-09-08T04:32:57.150Z,3.80
2022-09-08T04:38:01.430Z,4.40
2022-09-08T04:43:04.867Z,3.90
2022-09-08T04:48:10.723Z,4.05
2022-09-08T04:53:14.739Z,4.28
2022-09-08T04:58:19.932Z,4.43
2022-09-08T05:03:24.736Z,4.18
2022-09-08T05:13:32.124Z,3.25
2022-09-08T05:18:37.593Z,2.83
2022-09-08T05:23:41.251Z,2.45
2022-09-08T05:28:45.575Z,2.58
2022-09-08T05:33:51.910Z,2.60
2022-09-08T05:38:56.835Z,3.00
2022-09-08T05:44:01.378Z,2.85
2022-09-08T05:49:06.147Z,2.58
2022-09-08T05:54:09.443Z,2.78
2022-09-08T05:59:13.362Z,2.17
2022-09-08T06:04:20.150Z,3.00
2022-09-08T06:09:23.436Z,2.17
2022-09-08T06:14:27.046Z,2.13
2022-09-08T06:19:32.091Z,2.03
2022-09-08T06:24:35.844Z,1.92
2022-09-08T06:29:59.310Z,1.60
2022-09-08T06:35:09.395Z,1.70
2022-09-08T06:40:17.363Z,1.70
2022-09-08T06:45:25.162Z,1.80
2022-09-08T06:50:34.548Z,2.20
2022-09-08T06:55:42.399Z,2.30
2022-09-08T07:00:52.209Z,2.10
2022-09-08T07:06:07.858Z,2.30
2022-09-08T07:11:23.223Z,2.10
2022-09-08T07:16:37.043Z,2.20
2022-09-08T07:21:52.526Z,2.40
2022-09-08T07:26:59.012Z,2.70
2022-09-08T07:32:04.102Z,2.50
2022-09-08T07:37:17.438Z,2.55
2022-09-08T07:42:21.205Z,2.38
2022-09-08T07:47:35.224Z,2.70
2022-09-08T07:52:51.618Z,2.40
2022-09-08T07:58:02.882Z,2.50
2022-09-08T08:03:30.107Z,2.90
2022-09-08T08:08:44.810Z,2.47
2022-09-08T08:14:00.449Z,2.30
2022-09-08T08:19:18.623Z,1.80
2022-09-08T08:24:34.122Z,2.40
2022-09-08T08:30:02.867Z,2.70
2022-09-08T08:35:15.166Z,2.78
2022-09-08T08:40:48.945Z,1.90
2022-09-08T08:46:08.097Z,2.55
2022-09-08T08:51:23.206Z,2.72
2022-09-08T09:01:46.973Z,2.03
2022-09-08T09:07:20.898Z,1.83
2022-09-08T09:12:36.798Z,1.55
2022-09-08T09:18:06.386Z,1.98
2022-09-08T09:23:16.926Z,2.15
2022-09-08T09:28:57.226Z,2.20
2022-09-08T09:34:17.727Z,1.65
2022-09-08T09:39:43.009Z,1.70
2022-09-08T09:45:32.658Z,1.67
2022-09-08T09:50:54.579Z,2.00
2022-09-08T09:56:35.207Z,3.08
2022-09-08T10:01:53.943Z,1.45
2022-09-08T10:07:31.172Z,1.95
2022-09-08T10:13:07.972Z,3.08
2022-09-08T10:18:40.854Z,1.52
2022-09-08T10:24:17.022Z,1.80
2022-09-08T10:29:55.990Z,1.30
2022-09-08T10:35:29.682Z,6.47
2022-09-08T10:40:40.599Z,1.90
2022-09-08T10:46:15.317Z,1.33
2022-09-08T10:52:01.008Z,2.00
2022-09-08T10:57:20.848Z,1.63
2022-09-08T11:02:36.281Z,2.60
2022-09-08T11:08:01.708Z,25.08
2022-09-08T11:13:21.295Z,2.78
2022-09-08T11:18:38.154Z,1.73
2022-09-08T11:24:04.223Z,1.00
2022-09-08T11:29:11.568Z,1.38
2022-09-08T11:34:41.083Z,1.42
2022-09-08T11:39:57.662Z,1.20
2022-09-08T11:45:15.271Z,1.33
2022-09-08T11:50:40.871Z,2.00
2022-09-08T11:56:11.131Z,4.85
2022-09-08T12:01:44.750Z,1.90
2022-09-08T12:07:11.960Z,2.50
2022-09-08T12:12:34.966Z,2.97
2022-09-08T12:17:50.555Z,1.63
2022-09-08T12:23:20.699Z,1.55
2022-09-08T12:28:54.994Z,1.33
2022-09-08T12:34:29.931Z,1.30
2022-09-08T12:39:53.321Z,3.70
2022-09-08T12:45:16.775Z,14.40
2022-09-08T12:50:35.951Z,11.15
2022-09-08T12:55:43.282Z,1.55
2022-09-08T13:00:58.083Z,66.57
2022-09-08T13:06:36.964Z,108.70
2022-09-08T13:12:17.132Z,46.55
2022-09-08T13:17:31.489Z,2.08
2022-09-08T13:22:41.087Z,1.70
2022-09-08T13:28:01.043Z,1.85
2022-09-08T13:33:22.278Z,1.60
2022-09-08T13:38:54.543Z,2.15
2022-09-08T13:44:20.398Z,2.67
2022-09-08T13:49:48.160Z,2.03
2022-09-08T13:55:15.537Z,1.63
2022-09-08T14:00:21.235Z,1.52
2022-09-08T14:05:33.878Z,1.50
2022-09-08T14:11:04.017Z,1.48
2022-09-08T14:16:19.870Z,1.50
2022-09-08T14:21:34.655Z,1.40
2022-09-08T14:26:50.499Z,1.70
2022-09-08T14:32:05.010Z,1.30
2022-09-08T14:37:17.523Z,1.58
2022-09-08T14:42:24.748Z,1.23
2022-09-08T14:47:32.865Z,1.17
2022-09-08T14:52:51.582Z,1.35
2022-09-08T14:58:24.019Z,1.27
2022-09-08T15:03:34.168Z,1.40
2022-09-08T15:08:41.810Z,1.40
2022-09-08T15:14:03.836Z,1.33
2022-09-08T15:19:16.162Z,1.65
2022-09-08T15:24:36.623Z,1.70
2022-09-08T15:29:59.155Z,1.92
2022-09-08T15:35:22.574Z,1.23
2022-09-08T15:40:28.880Z,1.42
2022-09-08T15:46:04.078Z,1.30
2022-09-08T15:51:18.168Z,1.70
2022-09-08T15:57:06.839Z,1.43
2022-09-08T16:02:27.603Z,1.40
2022-09-08T16:07:42.183Z,1.65
2022-09-08T16:12:55.271Z,1.38
2022-09-08T16:18:31.091Z,1.55
2022-09-08T16:23:41.405Z,1.30
2022-09-08T16:28:55.585Z,1.60
2022-09-08T16:34:25.710Z,1.53
2022-09-08T16:39:29.531Z,1.83
2022-09-08T16:44:47.628Z,1.90
2022-09-08T16:50:04.146Z,1.83
2022-09-08T16:55:25.785Z,2.28
2022-09-08T17:00:45.770Z,2.10
2022-09-08T17:05:57.026Z,2.50
2022-09-08T17:11:09.777Z,2.50
2022-09-08T17:16:51.781Z,2.70
2022-09-08T17:22:42.887Z,2.53
2022-09-08T17:28:50.298Z,3.10
2022-09-08T17:34:25.919Z,3.13
2022-09-08T17:39:49.787Z,3.10
2022-09-08T17:45:03.147Z,3.40
2022-09-08T17:50:21.341Z,4.00
2022-09-08T17:55:40.562Z,3.88
2022-09-08T18:00:53.881Z,3.50
2022-09-08T18:06:06.934Z,4.15
2022-09-08T18:11:37.019Z,3.60
2022-09-08T18:16:44.397Z,3.70
2022-09-08T18:22:23.402Z,3.45
2022-09-08T18:27:54.660Z,3.95
2022-09-08T18:33:13.030Z,4.70
2022-09-08T18:38:26.041Z,5.43
2022-09-08T18:43:37.364Z,6.85
2022-09-08T18:48:52.482Z,5.60
2022-09-08T18:54:42.512Z,4.32
2022-09-08T19:00:01.369Z,4.43
2022-09-08T19:05:21.288Z,4.28
2022-09-08T19:10:32.349Z,5.15
2022-09-08T19:15:53.992Z,5.15
2022-09-08T19:21:02.690Z,4.50
2022-09-08T19:26:20.831Z,5.28
2022-09-08T19:31:36.000Z,4.40
2022-09-08T19:36:53.993Z,5.00
2022-09-08T19:42:09.247Z,4.45
2022-09-08T19:47:31.878Z,3.83
2022-09-08T19:52:53.764Z,3.05
2022-09-08T19:58:02.065Z,3.03
2022-09-08T20:03:15.850Z,3.22
2022-09-08T20:08:42.242Z,2.83
2022-09-08T20:13:55.615Z,3.08
2022-09-08T20:19:11.628Z,2.80
2022-09-08T20:24:28.651Z,2.63
2022-09-08T20:29:38.299Z,3.28
2022-09-08T20:35:09.740Z,2.90
2022-09-08T20:40:19.530Z,2.90
2022-09-08T20:45:36.298Z,3.63
2022-09-08T20:50:49.519Z,3.08
2022-09-08T20:56:02.988Z,3.20
2022-09-08T21:01:15.687Z,3.00
2022-09-08T21:06:24.239Z,2.80
2022-09-08T21:11:34.229Z,3.00
2022-09-08T21:16:45.080Z,2.67
2022-09-08T21:21:56.540Z,2.60
2022-09-08T21:27:23.606Z,3.05
2022-09-08T21:32:43.117Z,2.78
2022-09-08T21:37:55.487Z,2.78
2022-09-08T21:43:01.870Z,2.88
2022-09-08T21:48:14.203Z,2.88
2022-09-08T21:53:30.457Z,2.60
2022-09-08T21:58:39.404Z,3.15
2022-09-08T22:03:48.428Z,2.92
2022-09-08T22:09:13.966Z,2.65
2022-09-08T22:14:32.511Z,3.00
2022-09-08T22:19:41.145Z,2.65
2022-09-08T22:24:54.469Z,2.58
2022-09-08T22:30:21.927Z,2.67
2022-09-08T22:35:42.865Z,2.30
2022-09-08T22:40:55.664Z,2.55
2022-09-08T22:46:14.932Z,2.63
2022-09-08T22:51:31.604Z,2.80
2022-09-08T22:56:50.949Z,3.03
2022-09-08T23:02:00.191Z,2.90
2022-09-08T23:07:20.467Z,3.17
2022-09-08T23:12:34.014Z,3.00
2022-09-08T23:17:49.499Z,2.83
2022-09-08T23:23:20.081Z,3.05
2022-09-08T23:28:50.949Z,3.33
2022-09-08T23:34:03.715Z,3.30
2022-09-08T23:39:22.439Z,3.15
2022-09-08T23:44:27.402Z,3.58
2022-09-08T23:49:31.703Z,3.47
2022-09-08T23:54:36.599Z,3.60
